CheckWX is a tool to help pilots better visualize weather data.  It is not intended as a substitute for an official pre-flight weather briefing.

22:20:36 UTC

TXKF METAR
L F Wade International Airport
Hamilton, Bermuda
Current

26 mins ago

TXKF 192155Z 34010KT 9999 FEW036 BKN300 23/15 Q1017
Observed
Oct-19 @ 21:55 UTC
Wind
  • 340° at 10 KTS
Visibility
10,000+ meters
Flight Rules
VFR
Cloud Levels
  • Few at 3,600' AGL
  • Broken at 30,000' AGL
Temperature
23°C / 73°F
Dewpoint
15°C / 59°F
Humidity
61%
Altimeter
30.03" Hg
Pressure
1016.92 hPa
Previous

1 hour ago

TXKF 192055Z 35013KT 9999 FEW036 BKN300 23/15 Q1016
Observed
Oct-19 @ 20:55 UTC
Wind
  • 350° at 13 KTS
Visibility
10,000+ meters
Flight Rules
VFR
Cloud Levels
  • Few at 3,600' AGL
  • Broken at 30,000' AGL
Temperature
23°C / 73°F
Dewpoint
15°C / 59°F
Humidity
61%
Altimeter
30" Hg
Pressure
1015.92 hPa
Previous

2 hours ago

TXKF 191955Z 34010KT 9999 FEW033 SCT300 24/16 Q1016
Observed
Oct-19 @ 19:55 UTC
Wind
  • 340° at 10 KTS
Visibility
10,000+ meters
Flight Rules
VFR
Cloud Levels
  • Few at 3,300' AGL
  • Scattered at 30,000' AGL
Temperature
24°C / 75°F
Dewpoint
16°C / 61°F
Humidity
61%
Altimeter
30" Hg
Pressure
1015.92 hPa